sensor_id;sensor_type;location;lat;lon;timestamp;P1;durP1;ratioP1;P2;durP2;ratioP2
16994;SDS011;8614;48.522;9.206;2024-01-30T00:00:32;17.63;;;16.13;;
16994;SDS011;8614;48.522;9.206;2024-01-30T00:02:59;16.57;;;15.17;;
16994;SDS011;8614;48.522;9.206;2024-01-30T00:05:26;18.17;;;16.47;;
16994;SDS011;8614;48.522;9.206;2024-01-30T00:07:54;17.20;;;15.83;;
16994;SDS011;8614;48.522;9.206;2024-01-30T00:10:21;18.57;;;16.97;;
16994;SDS011;8614;48.522;9.206;2024-01-30T00:12:48;18.20;;;16.67;;
16994;SDS011;8614;48.522;9.206;2024-01-30T00:15:15;17.90;;;16.20;;
16994;SDS011;8614;48.522;9.206;2024-01-30T00:17:42;17.37;;;15.87;;
16994;SDS011;8614;48.522;9.206;2024-01-30T00:20:09;18.30;;;16.80;;
16994;SDS011;8614;48.522;9.206;2024-01-30T00:22:36;20.03;;;18.07;;
16994;SDS011;8614;48.522;9.206;2024-01-30T00:25:04;17.67;;;16.27;;
16994;SDS011;8614;48.522;9.206;2024-01-30T00:27:31;18.60;;;17.07;;
16994;SDS011;8614;48.522;9.206;2024-01-30T00:29:58;19.20;;;17.33;;
16994;SDS011;8614;48.522;9.206;2024-01-30T00:32:25;18.13;;;16.73;;
16994;SDS011;8614;48.522;9.206;2024-01-30T00:34:52;19.43;;;17.63;;
16994;SDS011;8614;48.522;9.206;2024-01-30T00:37:18;18.67;;;17.10;;
16994;SDS011;8614;48.522;9.206;2024-01-30T00:39:45;18.30;;;16.60;;
16994;SDS011;8614;48.522;9.206;2024-01-30T00:42:13;19.20;;;17.50;;
16994;SDS011;8614;48.522;9.206;2024-01-30T00:44:40;18.90;;;17.20;;
16994;SDS011;8614;48.522;9.206;2024-01-30T00:47:07;18.63;;;16.93;;
16994;SDS011;8614;48.522;9.206;2024-01-30T00:49:34;19.20;;;17.60;;
16994;SDS011;8614;48.522;9.206;2024-01-30T00:52:00;19.77;;;17.97;;
16994;SDS011;8614;48.522;9.206;2024-01-30T00:54:27;19.70;;;17.90;;
16994;SDS011;8614;48.522;9.206;2024-01-30T00:56:54;20.63;;;18.17;;
16994;SDS011;8614;48.522;9.206;2024-01-30T00:59:23;19.67;;;17.73;;
16994;SDS011;8614;48.522;9.206;2024-01-30T01:01:50;19.37;;;17.60;;
16994;SDS011;8614;48.522;9.206;2024-01-30T01:04:16;19.77;;;17.83;;
16994;SDS011;8614;48.522;9.206;2024-01-30T01:06:43;20.50;;;18.70;;
16994;SDS011;8614;48.522;9.206;2024-01-30T01:09:10;19.73;;;17.97;;
16994;SDS011;8614;48.522;9.206;2024-01-30T01:11:37;19.80;;;17.97;;
16994;SDS011;8614;48.522;9.206;2024-01-30T01:14:04;18.97;;;17.27;;
16994;SDS011;8614;48.522;9.206;2024-01-30T01:16:32;20.83;;;18.90;;
16994;SDS011;8614;48.522;9.206;2024-01-30T01:18:59;20.97;;;18.87;;
16994;SDS011;8614;48.522;9.206;2024-01-30T01:21:26;21.90;;;19.60;;
16994;SDS011;8614;48.522;9.206;2024-01-30T01:23:53;21.70;;;19.50;;
16994;SDS011;8614;48.522;9.206;2024-01-30T01:26:20;21.53;;;19.43;;
16994;SDS011;8614;48.522;9.206;2024-01-30T01:28:47;21.20;;;19.20;;
16994;SDS011;8614;48.522;9.206;2024-01-30T01:31:14;21.07;;;19.07;;
16994;SDS011;8614;48.522;9.206;2024-01-30T01:33:44;22.00;;;19.67;;
16994;SDS011;8614;48.522;9.206;2024-01-30T01:36:10;20.30;;;18.40;;
16994;SDS011;8614;48.522;9.206;2024-01-30T01:38:37;20.57;;;18.50;;
16994;SDS011;8614;48.522;9.206;2024-01-30T01:41:04;18.53;;;17.07;;
16994;SDS011;8614;48.522;9.206;2024-01-30T01:43:31;19.77;;;18.07;;
16994;SDS011;8614;48.522;9.206;2024-01-30T01:45:58;19.63;;;17.73;;
16994;SDS011;8614;48.522;9.206;2024-01-30T01:48:26;18.00;;;16.50;;
16994;SDS011;8614;48.522;9.206;2024-01-30T01:50:54;18.57;;;16.83;;
16994;SDS011;8614;48.522;9.206;2024-01-30T01:53:21;19.53;;;17.77;;
16994;SDS011;8614;48.522;9.206;2024-01-30T01:55:48;18.97;;;17.27;;
16994;SDS011;8614;48.522;9.206;2024-01-30T01:58:15;18.70;;;17.10;;
16994;SDS011;8614;48.522;9.206;2024-01-30T02:00:42;17.90;;;16.30;;
16994;SDS011;8614;48.522;9.206;2024-01-30T02:03:10;19.33;;;17.63;;
16994;SDS011;8614;48.522;9.206;2024-01-30T02:05:38;17.80;;;16.20;;
16994;SDS011;8614;48.522;9.206;2024-01-30T02:08:07;18.47;;;16.87;;
16994;SDS011;8614;48.522;9.206;2024-01-30T02:10:35;18.03;;;16.43;;
16994;SDS011;8614;48.522;9.206;2024-01-30T02:13:02;18.03;;;16.40;;
16994;SDS011;8614;48.522;9.206;2024-01-30T02:15:29;17.57;;;16.03;;
16994;SDS011;8614;48.522;9.206;2024-01-30T02:17:56;18.00;;;16.50;;
16994;SDS011;8614;48.522;9.206;2024-01-30T02:20:23;18.83;;;17.23;;
16994;SDS011;8614;48.522;9.206;2024-01-30T02:22:52;17.70;;;16.10;;
16994;SDS011;8614;48.522;9.206;2024-01-30T02:25:29;17.90;;;16.33;;
16994;SDS011;8614;48.522;9.206;2024-01-30T02:27:57;18.13;;;16.47;;
16994;SDS011;8614;48.522;9.206;2024-01-30T02:30:24;18.13;;;16.63;;
16994;SDS011;8614;48.522;9.206;2024-01-30T02:32:51;17.70;;;16.30;;
16994;SDS011;8614;48.522;9.206;2024-01-30T02:35:17;18.30;;;16.57;;
16994;SDS011;8614;48.522;9.206;2024-01-30T02:37:44;18.97;;;17.43;;
16994;SDS011;8614;48.522;9.206;2024-01-30T02:40:12;18.97;;;17.27;;
16994;SDS011;8614;48.522;9.206;2024-01-30T02:42:39;18.07;;;16.57;;
16994;SDS011;8614;48.522;9.206;2024-01-30T02:45:07;19.23;;;17.43;;
16994;SDS011;8614;48.522;9.206;2024-01-30T02:47:35;18.90;;;17.20;;
16994;SDS011;8614;48.522;9.206;2024-01-30T02:50:02;18.37;;;16.67;;
16994;SDS011;8614;48.522;9.206;2024-01-30T02:52:28;18.17;;;16.67;;
16994;SDS011;8614;48.522;9.206;2024-01-30T02:54:55;17.83;;;16.43;;
16994;SDS011;8614;48.522;9.206;2024-01-30T02:57:23;16.77;;;15.50;;
16994;SDS011;8614;48.522;9.206;2024-01-30T02:59:50;16.90;;;15.50;;
16994;SDS011;8614;48.522;9.206;2024-01-30T03:02:17;17.03;;;15.67;;
16994;SDS011;8614;48.522;9.206;2024-01-30T03:04:44;16.30;;;15.00;;
16994;SDS011;8614;48.522;9.206;2024-01-30T03:07:11;16.67;;;15.30;;
16994;SDS011;8614;48.522;9.206;2024-01-30T03:09:38;17.63;;;16.33;;
16994;SDS011;8614;48.522;9.206;2024-01-30T03:12:07;17.20;;;15.90;;
16994;SDS011;8614;48.522;9.206;2024-01-30T03:14:35;17.50;;;16.10;;
16994;SDS011;8614;48.522;9.206;2024-01-30T03:17:02;17.33;;;15.90;;
16994;SDS011;8614;48.522;9.206;2024-01-30T03:19:29;18.20;;;16.70;;
16994;SDS011;8614;48.522;9.206;2024-01-30T03:21:56;17.63;;;16.23;;
16994;SDS011;8614;48.522;9.206;2024-01-30T03:24:22;16.87;;;15.47;;
16994;SDS011;8614;48.522;9.206;2024-01-30T03:26:49;18.20;;;16.70;;
16994;SDS011;8614;48.522;9.206;2024-01-30T03:29:16;17.10;;;15.80;;
16994;SDS011;8614;48.522;9.206;2024-01-30T03:31:44;18.27;;;16.53;;
16994;SDS011;8614;48.522;9.206;2024-01-30T03:34:11;19.37;;;17.57;;
16994;SDS011;8614;48.522;9.206;2024-01-30T03:36:38;18.10;;;16.50;;
16994;SDS011;8614;48.522;9.206;2024-01-30T03:39:04;17.27;;;15.97;;
16994;SDS011;8614;48.522;9.206;2024-01-30T03:41:31;17.20;;;15.67;;
16994;SDS011;8614;48.522;9.206;2024-01-30T03:43:58;17.70;;;16.20;;
16994;SDS011;8614;48.522;9.206;2024-01-30T03:46:25;17.90;;;16.40;;
16994;SDS011;8614;48.522;9.206;2024-01-30T03:48:53;17.40;;;16.03;;
16994;SDS011;8614;48.522;9.206;2024-01-30T03:51:20;18.17;;;16.67;;
16994;SDS011;8614;48.522;9.206;2024-01-30T03:53:47;16.97;;;15.57;;
16994;SDS011;8614;48.522;9.206;2024-01-30T03:56:13;18.00;;;16.40;;
16994;SDS011;8614;48.522;9.206;2024-01-30T03:58:40;17.23;;;15.87;;
16994;SDS011;8614;48.522;9.206;2024-01-30T04:01:07;17.80;;;16.40;;
16994;SDS011;8614;48.522;9.206;2024-01-30T04:03:38;16.83;;;15.43;;
16994;SDS011;8614;48.522;9.206;2024-01-30T04:06:07;18.03;;;16.43;;
16994;SDS011;8614;48.522;9.206;2024-01-30T04:08:33;17.67;;;16.17;;
16994;SDS011;8614;48.522;9.206;2024-01-30T04:11:02;17.37;;;16.03;;
16994;SDS011;8614;48.522;9.206;2024-01-30T04:13:30;17.00;;;15.73;;
16994;SDS011;8614;48.522;9.206;2024-01-30T04:15:58;17.03;;;15.63;;
16994;SDS011;8614;48.522;9.206;2024-01-30T04:18:25;16.10;;;14.87;;
16994;SDS011;8614;48.522;9.206;2024-01-30T04:20:52;17.70;;;16.17;;
16994;SDS011;8614;48.522;9.206;2024-01-30T04:23:20;17.07;;;15.63;;
16994;SDS011;8614;48.522;9.206;2024-01-30T04:25:47;16.87;;;15.43;;
16994;SDS011;8614;48.522;9.206;2024-01-30T04:28:14;16.50;;;15.10;;
16994;SDS011;8614;48.522;9.206;2024-01-30T04:30:40;16.50;;;15.20;;
16994;SDS011;8614;48.522;9.206;2024-01-30T04:33:07;16.40;;;15.10;;
16994;SDS011;8614;48.522;9.206;2024-01-30T04:35:34;17.40;;;15.90;;
16994;SDS011;8614;48.522;9.206;2024-01-30T04:38:02;16.97;;;15.57;;
16994;SDS011;8614;48.522;9.206;2024-01-30T04:40:30;17.00;;;15.63;;
16994;SDS011;8614;48.522;9.206;2024-01-30T04:42:57;17.13;;;15.77;;
16994;SDS011;8614;48.522;9.206;2024-01-30T04:45:23;16.80;;;15.50;;
16994;SDS011;8614;48.522;9.206;2024-01-30T04:47:50;16.03;;;14.83;;
16994;SDS011;8614;48.522;9.206;2024-01-30T04:50:17;16.93;;;15.63;;
16994;SDS011;8614;48.522;9.206;2024-01-30T04:52:44;17.70;;;16.20;;
16994;SDS011;8614;48.522;9.206;2024-01-30T04:55:11;18.80;;;17.17;;
16994;SDS011;8614;48.522;9.206;2024-01-30T04:57:39;18.13;;;16.73;;
16994;SDS011;8614;48.522;9.206;2024-01-30T05:00:06;18.77;;;17.17;;
16994;SDS011;8614;48.522;9.206;2024-01-30T05:02:34;18.47;;;16.67;;
16994;SDS011;8614;48.522;9.206;2024-01-30T05:05:00;18.70;;;16.93;;
16994;SDS011;8614;48.522;9.206;2024-01-30T05:07:27;20.03;;;18.27;;
16994;SDS011;8614;48.522;9.206;2024-01-30T05:09:54;19.63;;;17.83;;
16994;SDS011;8614;48.522;9.206;2024-01-30T05:12:21;19.77;;;17.93;;
16994;SDS011;8614;48.522;9.206;2024-01-30T05:14:49;18.53;;;16.93;;
16994;SDS011;8614;48.522;9.206;2024-01-30T05:17:16;18.37;;;16.83;;
16994;SDS011;8614;48.522;9.206;2024-01-30T05:19:43;18.43;;;16.93;;
16994;SDS011;8614;48.522;9.206;2024-01-30T05:22:10;20.07;;;18.17;;
16994;SDS011;8614;48.522;9.206;2024-01-30T05:24:40;20.97;;;19.23;;
16994;SDS011;8614;48.522;9.206;2024-01-30T05:27:08;19.90;;;18.20;;
16994;SDS011;8614;48.522;9.206;2024-01-30T05:29:34;19.67;;;17.87;;
16994;SDS011;8614;48.522;9.206;2024-01-30T05:32:03;20.57;;;18.77;;
16994;SDS011;8614;48.522;9.206;2024-01-30T05:34:30;19.77;;;17.90;;
16994;SDS011;8614;48.522;9.206;2024-01-30T05:36:57;20.67;;;18.80;;
16994;SDS011;8614;48.522;9.206;2024-01-30T05:39:24;19.40;;;17.77;;
16994;SDS011;8614;48.522;9.206;2024-01-30T05:41:50;19.83;;;17.97;;
16994;SDS011;8614;48.522;9.206;2024-01-30T05:44:17;18.50;;;16.77;;
16994;SDS011;8614;48.522;9.206;2024-01-30T05:46:44;21.10;;;19.10;;
16994;SDS011;8614;48.522;9.206;2024-01-30T05:49:12;21.33;;;19.30;;
16994;SDS011;8614;48.522;9.206;2024-01-30T05:51:39;21.43;;;19.27;;
16994;SDS011;8614;48.522;9.206;2024-01-30T05:54:05;21.13;;;19.20;;
16994;SDS011;8614;48.522;9.206;2024-01-30T05:56:32;20.33;;;18.33;;
16994;SDS011;8614;48.522;9.206;2024-01-30T05:58:59;21.50;;;19.33;;
16994;SDS011;8614;48.522;9.206;2024-01-30T06:01:26;21.27;;;19.10;;
16994;SDS011;8614;48.522;9.206;2024-01-30T06:03:54;20.43;;;18.63;;
16994;SDS011;8614;48.522;9.206;2024-01-30T06:06:22;20.50;;;18.50;;
16994;SDS011;8614;48.522;9.206;2024-01-30T06:08:49;20.83;;;18.83;;
16994;SDS011;8614;48.522;9.206;2024-01-30T06:11:15;19.07;;;17.40;;
16994;SDS011;8614;48.522;9.206;2024-01-30T06:13:42;19.17;;;17.33;;
16994;SDS011;8614;48.522;9.206;2024-01-30T06:16:09;17.87;;;16.57;;
16994;SDS011;8614;48.522;9.206;2024-01-30T06:18:37;19.60;;;17.93;;
16994;SDS011;8614;48.522;9.206;2024-01-30T06:21:04;19.90;;;18.20;;
16994;SDS011;8614;48.522;9.206;2024-01-30T06:23:32;18.60;;;17.20;;
16994;SDS011;8614;48.522;9.206;2024-01-30T06:25:59;19.07;;;17.63;;
16994;SDS011;8614;48.522;9.206;2024-01-30T06:28:26;19.93;;;18.23;;
16994;SDS011;8614;48.522;9.206;2024-01-30T06:30:52;21.00;;;19.23;;
16994;SDS011;8614;48.522;9.206;2024-01-30T06:33:19;20.40;;;18.60;;
16994;SDS011;8614;48.522;9.206;2024-01-30T06:35:46;19.30;;;17.80;;
16994;SDS011;8614;48.522;9.206;2024-01-30T06:38:13;19.83;;;17.93;;
16994;SDS011;8614;48.522;9.206;2024-01-30T06:40:42;19.27;;;17.67;;
16994;SDS011;8614;48.522;9.206;2024-01-30T06:43:08;21.17;;;19.27;;
16994;SDS011;8614;48.522;9.206;2024-01-30T06:45:36;20.33;;;18.53;;
16994;SDS011;8614;48.522;9.206;2024-01-30T06:48:03;20.80;;;19.20;;
16994;SDS011;8614;48.522;9.206;2024-01-30T06:50:30;20.43;;;18.83;;
16994;SDS011;8614;48.522;9.206;2024-01-30T06:52:57;18.93;;;17.40;;
16994;SDS011;8614;48.522;9.206;2024-01-30T06:55:24;18.37;;;16.97;;
16994;SDS011;8614;48.522;9.206;2024-01-30T06:57:52;19.27;;;17.57;;
16994;SDS011;8614;48.522;9.206;2024-01-30T07:00:19;19.70;;;18.13;;
16994;SDS011;8614;48.522;9.206;2024-01-30T07:02:46;19.33;;;17.63;;
16994;SDS011;8614;48.522;9.206;2024-01-30T07:05:13;18.80;;;17.30;;
16994;SDS011;8614;48.522;9.206;2024-01-30T07:07:40;19.30;;;17.70;;
16994;SDS011;8614;48.522;9.206;2024-01-30T07:10:07;18.93;;;17.47;;
16994;SDS011;8614;48.522;9.206;2024-01-30T07:12:35;19.10;;;17.60;;
16994;SDS011;8614;48.522;9.206;2024-01-30T07:15:03;19.20;;;17.50;;
16994;SDS011;8614;48.522;9.206;2024-01-30T07:17:33;18.37;;;16.90;;
16994;SDS011;8614;48.522;9.206;2024-01-30T07:20:00;18.30;;;16.90;;
16994;SDS011;8614;48.522;9.206;2024-01-30T07:22:28;17.87;;;16.47;;
16994;SDS011;8614;48.522;9.206;2024-01-30T07:24:55;18.10;;;16.70;;
16994;SDS011;8614;48.522;9.206;2024-01-30T07:27:23;19.63;;;17.97;;
16994;SDS011;8614;48.522;9.206;2024-01-30T07:29:50;18.70;;;17.23;;
16994;SDS011;8614;48.522;9.206;2024-01-30T07:32:18;17.60;;;16.13;;
16994;SDS011;8614;48.522;9.206;2024-01-30T07:34:45;18.97;;;17.27;;
16994;SDS011;8614;48.522;9.206;2024-01-30T07:37:11;18.63;;;17.03;;
16994;SDS011;8614;48.522;9.206;2024-01-30T07:39:40;19.10;;;17.40;;
16994;SDS011;8614;48.522;9.206;2024-01-30T07:42:07;18.80;;;17.40;;
16994;SDS011;8614;48.522;9.206;2024-01-30T07:44:34;17.53;;;16.13;;
16994;SDS011;8614;48.522;9.206;2024-01-30T07:47:01;17.30;;;16.00;;
16994;SDS011;8614;48.522;9.206;2024-01-30T07:49:30;17.07;;;15.80;;
16994;SDS011;8614;48.522;9.206;2024-01-30T07:51:57;17.00;;;15.83;;
16994;SDS011;8614;48.522;9.206;2024-01-30T07:54:24;16.83;;;15.43;;
16994;SDS011;8614;48.522;9.206;2024-01-30T07:56:51;17.20;;;15.83;;
16994;SDS011;8614;48.522;9.206;2024-01-30T07:59:18;17.60;;;16.23;;
16994;SDS011;8614;48.522;9.206;2024-01-30T08:01:47;16.97;;;15.67;;
16994;SDS011;8614;48.522;9.206;2024-01-30T08:04:14;16.67;;;15.47;;
16994;SDS011;8614;48.522;9.206;2024-01-30T08:06:42;16.50;;;15.30;;
16994;SDS011;8614;48.522;9.206;2024-01-30T08:09:09;16.63;;;15.43;;
16994;SDS011;8614;48.522;9.206;2024-01-30T08:11:38;16.93;;;15.53;;
16994;SDS011;8614;48.522;9.206;2024-01-30T08:14:05;16.50;;;15.30;;
16994;SDS011;8614;48.522;9.206;2024-01-30T08:16:32;16.43;;;15.23;;
16994;SDS011;8614;48.522;9.206;2024-01-30T08:18:59;17.03;;;15.63;;
16994;SDS011;8614;48.522;9.206;2024-01-30T08:21:26;18.13;;;16.60;;
16994;SDS011;8614;48.522;9.206;2024-01-30T08:23:54;17.17;;;15.87;;
16994;SDS011;8614;48.522;9.206;2024-01-30T08:26:21;17.30;;;15.90;;
16994;SDS011;8614;48.522;9.206;2024-01-30T08:28:48;17.27;;;15.97;;
16994;SDS011;8614;48.522;9.206;2024-01-30T08:31:15;16.73;;;15.43;;
16994;SDS011;8614;48.522;9.206;2024-01-30T08:33:42;16.47;;;15.17;;
16994;SDS011;8614;48.522;9.206;2024-01-30T08:36:09;16.37;;;15.20;;
16994;SDS011;8614;48.522;9.206;2024-01-30T08:38:35;16.10;;;14.90;;
16994;SDS011;8614;48.522;9.206;2024-01-30T08:41:04;15.60;;;14.40;;
16994;SDS011;8614;48.522;9.206;2024-01-30T08:43:30;15.50;;;14.40;;
16994;SDS011;8614;48.522;9.206;2024-01-30T08:45:58;15.23;;;14.13;;
16994;SDS011;8614;48.522;9.206;2024-01-30T08:48:25;15.20;;;14.17;;
16994;SDS011;8614;48.522;9.206;2024-01-30T08:50:52;15.17;;;14.07;;
16994;SDS011;8614;48.522;9.206;2024-01-30T08:53:19;15.93;;;14.67;;
16994;SDS011;8614;48.522;9.206;2024-01-30T08:55:46;15.50;;;14.40;;
16994;SDS011;8614;48.522;9.206;2024-01-30T08:58:14;15.37;;;14.07;;
16994;SDS011;8614;48.522;9.206;2024-01-30T09:00:43;15.67;;;14.33;;
16994;SDS011;8614;48.522;9.206;2024-01-30T09:03:10;14.70;;;13.50;;
16994;SDS011;8614;48.522;9.206;2024-01-30T09:05:36;15.53;;;14.30;;
16994;SDS011;8614;48.522;9.206;2024-01-30T09:08:03;15.00;;;13.87;;
16994;SDS011;8614;48.522;9.206;2024-01-30T09:10:30;15.40;;;14.30;;
16994;SDS011;8614;48.522;9.206;2024-01-30T09:12:57;15.97;;;14.60;;
16994;SDS011;8614;48.522;9.206;2024-01-30T09:15:25;15.30;;;14.10;;
16994;SDS011;8614;48.522;9.206;2024-01-30T09:17:52;15.53;;;14.33;;
16994;SDS011;8614;48.522;9.206;2024-01-30T09:20:19;14.80;;;13.70;;
16994;SDS011;8614;48.522;9.206;2024-01-30T09:22:47;15.10;;;13.83;;
16994;SDS011;8614;48.522;9.206;2024-01-30T09:25:14;14.50;;;13.40;;
16994;SDS011;8614;48.522;9.206;2024-01-30T09:27:41;15.13;;;13.93;;
16994;SDS011;8614;48.522;9.206;2024-01-30T09:30:08;15.10;;;14.07;;
16994;SDS011;8614;48.522;9.206;2024-01-30T09:32:36;15.40;;;14.13;;
16994;SDS011;8614;48.522;9.206;2024-01-30T09:35:03;15.73;;;14.40;;
16994;SDS011;8614;48.522;9.206;2024-01-30T09:37:31;15.40;;;14.20;;
16994;SDS011;8614;48.522;9.206;2024-01-30T09:39:58;14.60;;;13.50;;
16994;SDS011;8614;48.522;9.206;2024-01-30T09:42:26;15.57;;;14.33;;
16994;SDS011;8614;48.522;9.206;2024-01-30T09:44:57;14.27;;;13.27;;
16994;SDS011;8614;48.522;9.206;2024-01-30T09:47:24;14.53;;;13.43;;
16994;SDS011;8614;48.522;9.206;2024-01-30T09:49:52;13.87;;;12.87;;
16994;SDS011;8614;48.522;9.206;2024-01-30T09:52:19;14.60;;;13.37;;
16994;SDS011;8614;48.522;9.206;2024-01-30T09:54:46;13.63;;;12.73;;
16994;SDS011;8614;48.522;9.206;2024-01-30T09:57:15;14.50;;;13.40;;
16994;SDS011;8614;48.522;9.206;2024-01-30T09:59:42;14.50;;;13.40;;
16994;SDS011;8614;48.522;9.206;2024-01-30T10:02:09;13.93;;;13.00;;
16994;SDS011;8614;48.522;9.206;2024-01-30T10:04:36;14.33;;;13.23;;
16994;SDS011;8614;48.522;9.206;2024-01-30T10:07:04;14.60;;;13.50;;
16994;SDS011;8614;48.522;9.206;2024-01-30T10:09:32;14.90;;;13.80;;
16994;SDS011;8614;48.522;9.206;2024-01-30T10:12:00;15.50;;;14.30;;
16994;SDS011;8614;48.522;9.206;2024-01-30T10:14:28;15.77;;;14.50;;
16994;SDS011;8614;48.522;9.206;2024-01-30T10:16:55;14.80;;;13.70;;
16994;SDS011;8614;48.522;9.206;2024-01-30T10:19:24;15.90;;;14.60;;
16994;SDS011;8614;48.522;9.206;2024-01-30T10:21:51;15.87;;;14.53;;
16994;SDS011;8614;48.522;9.206;2024-01-30T10:24:23;15.47;;;14.10;;
16994;SDS011;8614;48.522;9.206;2024-01-30T10:26:50;15.53;;;14.23;;
16994;SDS011;8614;48.522;9.206;2024-01-30T10:29:17;15.27;;;14.07;;
16994;SDS011;8614;48.522;9.206;2024-01-30T10:31:44;15.50;;;14.20;;
16994;SDS011;8614;48.522;9.206;2024-01-30T10:34:12;15.00;;;13.87;;
16994;SDS011;8614;48.522;9.206;2024-01-30T10:36:39;15.27;;;14.07;;
16994;SDS011;8614;48.522;9.206;2024-01-30T10:39:07;15.23;;;14.00;;
16994;SDS011;8614;48.522;9.206;2024-01-30T10:41:43;15.20;;;14.10;;
16994;SDS011;8614;48.522;9.206;2024-01-30T10:44:10;14.43;;;13.33;;
16994;SDS011;8614;48.522;9.206;2024-01-30T10:46:38;15.27;;;14.07;;
16994;SDS011;8614;48.522;9.206;2024-01-30T10:49:07;14.43;;;13.33;;
16994;SDS011;8614;48.522;9.206;2024-01-30T10:51:36;15.30;;;14.03;;
16994;SDS011;8614;48.522;9.206;2024-01-30T10:54:04;14.77;;;13.67;;
16994;SDS011;8614;48.522;9.206;2024-01-30T10:56:32;14.23;;;13.13;;
16994;SDS011;8614;48.522;9.206;2024-01-30T10:59:02;14.47;;;13.37;;
16994;SDS011;8614;48.522;9.206;2024-01-30T11:01:29;15.10;;;13.73;;
16994;SDS011;8614;48.522;9.206;2024-01-30T11:03:57;15.37;;;14.07;;
16994;SDS011;8614;48.522;9.206;2024-01-30T11:06:24;14.43;;;13.33;;
16994;SDS011;8614;48.522;9.206;2024-01-30T11:09:01;14.47;;;13.47;;
16994;SDS011;8614;48.522;9.206;2024-01-30T11:11:29;14.83;;;13.73;;
16994;SDS011;8614;48.522;9.206;2024-01-30T11:14:00;16.10;;;14.80;;
16994;SDS011;8614;48.522;9.206;2024-01-30T11:16:31;16.23;;;14.87;;
16994;SDS011;8614;48.522;9.206;2024-01-30T11:19:00;16.47;;;15.20;;
16994;SDS011;8614;48.522;9.206;2024-01-30T11:21:27;16.37;;;15.07;;
16994;SDS011;8614;48.522;9.206;2024-01-30T11:23:54;16.13;;;14.83;;
16994;SDS011;8614;48.522;9.206;2024-01-30T11:26:23;15.17;;;13.87;;
16994;SDS011;8614;48.522;9.206;2024-01-30T11:28:55;14.37;;;13.27;;
16994;SDS011;8614;48.522;9.206;2024-01-30T11:31:22;14.83;;;13.63;;
16994;SDS011;8614;48.522;9.206;2024-01-30T11:33:53;15.17;;;13.87;;
16994;SDS011;8614;48.522;9.206;2024-01-30T11:36:21;13.37;;;12.37;;
16994;SDS011;8614;48.522;9.206;2024-01-30T11:38:52;14.97;;;13.47;;
16994;SDS011;8614;48.522;9.206;2024-01-30T11:41:20;14.70;;;13.50;;
16994;SDS011;8614;48.522;9.206;2024-01-30T11:43:51;14.87;;;13.63;;
16994;SDS011;8614;48.522;9.206;2024-01-30T11:46:18;14.10;;;13.00;;
16994;SDS011;8614;48.522;9.206;2024-01-30T11:48:45;13.80;;;12.80;;
16994;SDS011;8614;48.522;9.206;2024-01-30T11:51:14;13.53;;;12.53;;
16994;SDS011;8614;48.522;9.206;2024-01-30T11:53:43;14.87;;;13.77;;
16994;SDS011;8614;48.522;9.206;2024-01-30T11:56:12;15.10;;;14.07;;
16994;SDS011;8614;48.522;9.206;2024-01-30T11:58:42;14.97;;;13.77;;
16994;SDS011;8614;48.522;9.206;2024-01-30T12:01:08;14.93;;;13.77;;
16994;SDS011;8614;48.522;9.206;2024-01-30T12:03:36;14.43;;;13.33;;
16994;SDS011;8614;48.522;9.206;2024-01-30T12:06:03;14.17;;;13.07;;
16994;SDS011;8614;48.522;9.206;2024-01-30T12:08:31;13.80;;;12.90;;
16994;SDS011;8614;48.522;9.206;2024-01-30T12:10:58;13.53;;;12.43;;
16994;SDS011;8614;48.522;9.206;2024-01-30T12:13:26;13.37;;;12.23;;
16994;SDS011;8614;48.522;9.206;2024-01-30T12:15:54;12.50;;;11.60;;
16994;SDS011;8614;48.522;9.206;2024-01-30T12:18:21;14.07;;;12.73;;
16994;SDS011;8614;48.522;9.206;2024-01-30T12:20:56;12.87;;;11.83;;
16994;SDS011;8614;48.522;9.206;2024-01-30T12:23:23;12.90;;;11.90;;
16994;SDS011;8614;48.522;9.206;2024-01-30T12:25:52;12.67;;;11.63;;
16994;SDS011;8614;48.522;9.206;2024-01-30T12:28:19;13.03;;;12.03;;
16994;SDS011;8614;48.522;9.206;2024-01-30T12:30:46;13.03;;;12.13;;
16994;SDS011;8614;48.522;9.206;2024-01-30T12:33:15;14.30;;;13.10;;
16994;SDS011;8614;48.522;9.206;2024-01-30T12:35:45;13.73;;;12.63;;
16994;SDS011;8614;48.522;9.206;2024-01-30T12:38:12;13.83;;;12.73;;
16994;SDS011;8614;48.522;9.206;2024-01-30T12:40:39;14.47;;;13.07;;
16994;SDS011;8614;48.522;9.206;2024-01-30T12:43:07;14.03;;;12.93;;
16994;SDS011;8614;48.522;9.206;2024-01-30T12:45:35;14.17;;;13.17;;
16994;SDS011;8614;48.522;9.206;2024-01-30T12:48:02;13.03;;;12.03;;
16994;SDS011;8614;48.522;9.206;2024-01-30T12:50:29;12.27;;;11.47;;
16994;SDS011;8614;48.522;9.206;2024-01-30T12:52:56;12.00;;;11.10;;
16994;SDS011;8614;48.522;9.206;2024-01-30T12:55:23;12.50;;;11.60;;
16994;SDS011;8614;48.522;9.206;2024-01-30T12:57:53;12.33;;;11.43;;
16994;SDS011;8614;48.522;9.206;2024-01-30T13:00:22;12.20;;;11.30;;
16994;SDS011;8614;48.522;9.206;2024-01-30T13:02:48;11.60;;;10.70;;
16994;SDS011;8614;48.522;9.206;2024-01-30T13:05:15;13.00;;;12.10;;
16994;SDS011;8614;48.522;9.206;2024-01-30T13:07:42;13.23;;;12.10;;
16994;SDS011;8614;48.522;9.206;2024-01-30T13:10:09;12.70;;;11.73;;
16994;SDS011;8614;48.522;9.206;2024-01-30T13:12:36;12.70;;;11.80;;
16994;SDS011;8614;48.522;9.206;2024-01-30T13:15:03;13.13;;;12.13;;
16994;SDS011;8614;48.522;9.206;2024-01-30T13:17:32;12.43;;;11.53;;
16994;SDS011;8614;48.522;9.206;2024-01-30T13:19:59;11.93;;;11.13;;
16994;SDS011;8614;48.522;9.206;2024-01-30T13:22:26;11.63;;;10.83;;
16994;SDS011;8614;48.522;9.206;2024-01-30T13:24:53;12.03;;;11.23;;
16994;SDS011;8614;48.522;9.206;2024-01-30T13:27:20;11.63;;;10.83;;
16994;SDS011;8614;48.522;9.206;2024-01-30T13:29:47;11.60;;;10.90;;
16994;SDS011;8614;48.522;9.206;2024-01-30T13:32:13;11.73;;;10.90;;
16994;SDS011;8614;48.522;9.206;2024-01-30T13:34:42;11.77;;;10.87;;
16994;SDS011;8614;48.522;9.206;2024-01-30T13:37:09;12.93;;;11.93;;
16994;SDS011;8614;48.522;9.206;2024-01-30T13:39:36;12.80;;;11.67;;
16994;SDS011;8614;48.522;9.206;2024-01-30T13:42:04;10.83;;;9.87;;
16994;SDS011;8614;48.522;9.206;2024-01-30T13:44:31;12.90;;;11.90;;
16994;SDS011;8614;48.522;9.206;2024-01-30T13:46:58;12.53;;;11.47;;
16994;SDS011;8614;48.522;9.206;2024-01-30T13:49:24;12.40;;;11.50;;
16994;SDS011;8614;48.522;9.206;2024-01-30T13:51:53;13.13;;;12.13;;
16994;SDS011;8614;48.522;9.206;2024-01-30T13:54:20;12.47;;;11.50;;
16994;SDS011;8614;48.522;9.206;2024-01-30T13:56:47;12.07;;;11.27;;
16994;SDS011;8614;48.522;9.206;2024-01-30T13:59:13;12.03;;;11.20;;
16994;SDS011;8614;48.522;9.206;2024-01-30T14:01:40;11.60;;;10.70;;
16994;SDS011;8614;48.522;9.206;2024-01-30T14:04:07;11.90;;;11.10;;
16994;SDS011;8614;48.522;9.206;2024-01-30T14:06:34;11.33;;;10.63;;
16994;SDS011;8614;48.522;9.206;2024-01-30T14:09:02;11.37;;;10.57;;
16994;SDS011;8614;48.522;9.206;2024-01-30T14:11:29;10.90;;;10.20;;
16994;SDS011;8614;48.522;9.206;2024-01-30T14:13:56;11.93;;;11.10;;
16994;SDS011;8614;48.522;9.206;2024-01-30T14:16:22;10.60;;;9.90;;
16994;SDS011;8614;48.522;9.206;2024-01-30T14:18:50;10.83;;;10.03;;
16994;SDS011;8614;48.522;9.206;2024-01-30T14:21:17;10.50;;;9.80;;
16994;SDS011;8614;48.522;9.206;2024-01-30T14:23:43;10.47;;;9.80;;
16994;SDS011;8614;48.522;9.206;2024-01-30T14:26:13;10.60;;;9.90;;
16994;SDS011;8614;48.522;9.206;2024-01-30T14:28:40;10.40;;;9.73;;
16994;SDS011;8614;48.522;9.206;2024-01-30T14:31:08;10.43;;;9.83;;
16994;SDS011;8614;48.522;9.206;2024-01-30T14:33:36;10.87;;;10.07;;
16994;SDS011;8614;48.522;9.206;2024-01-30T14:36:03;10.70;;;10.00;;